URO661T EGJB-EGLL
Flight info
| Callsign | URO661T |
|---|---|
| Flight time | 0h 36m |
| Altitude | 19000 |
| Route | ORIST L982 ROXOG |
| Aircraft | A346/H-SDE2E3FGHIJ3J4J5M1RWXY/LB1D1 |
Departure
| Time | 2026-05-06 13:54 |
|---|---|
| Airport | Guernsey Airport (EGJB) |
Arrival
| Time | 2026-05-06 14:31 |
|---|---|
| Airport | London Heathrow Airport (EGLL) |
| Time | Latitude | Longitude | Altitude | Speed | Heading |
|---|---|---|---|---|---|
| 2026-05-06 13:41 | 49.43273 | -2.59622 | 336 ft | 0 kts | 178° |
| 2026-05-06 13:47 | 49.43287 | -2.59623 | 330 ft | 3 kts | 178° |
| 2026-05-06 13:47 | 49.43307 | -2.59624 | 332 ft | 3 kts | 178° |
| 2026-05-06 13:47 | 49.43323 | -2.59625 | 330 ft | 2 kts | 179° |
| 2026-05-06 13:48 | 49.43341 | -2.59623 | 330 ft | 3 kts | 197° |
| 2026-05-06 13:48 | 49.43353 | -2.59613 | 331 ft | 3 kts | 224° |
| 2026-05-06 13:48 | 49.43361 | -2.59597 | 331 ft | 3 kts | 252° |
| 2026-05-06 13:48 | 49.43364 | -2.59569 | 331 ft | 3 kts | 267° |
| 2026-05-06 13:49 | 49.43365 | -2.59538 | 332 ft | 3 kts | 268° |
| 2026-05-06 13:49 | 49.43365 | -2.59523 | 332 ft | 1 kts | 266° |
| 2026-05-06 13:49 | 49.43366 | -2.59521 | 332 ft | 0 kts | 266° |
| 2026-05-06 13:51 | 49.43365 | -2.59541 | 332 ft | 6 kts | 266° |
| 2026-05-06 13:51 | 49.43361 | -2.59638 | 330 ft | 12 kts | 266° |
| 2026-05-06 13:51 | 49.43349 | -2.59801 | 330 ft | 18 kts | 263° |
| 2026-05-06 13:52 | 49.43340 | -2.60024 | 328 ft | 24 kts | 267° |
| 2026-05-06 13:52 | 49.43332 | -2.60297 | 324 ft | 28 kts | 268° |
| 2026-05-06 13:52 | 49.43331 | -2.60623 | 322 ft | 32 kts | 277° |
| 2026-05-06 13:52 | 49.43363 | -2.60960 | 319 ft | 30 kts | 271° |
| 2026-05-06 13:53 | 49.43368 | -2.61292 | 316 ft | 33 kts | 280° |
| 2026-05-06 13:53 | 49.43441 | -2.61405 | 314 ft | 0 kts | 65° |
| 2026-05-06 13:53 | 49.43446 | -2.61394 | 313 ft | 3 kts | 50° |
| 2026-05-06 13:53 | 49.43452 | -2.61378 | 313 ft | 0 kts | 70° |
| 2026-05-06 13:54 | 49.43473 | -2.61115 | 317 ft | 78 kts | 87° |
| 2026-05-06 13:54 | 49.43509 | -2.59731 | 353 ft | 173 kts | 87° |
| 2026-05-06 13:54 | 49.43568 | -2.57964 | 1406 ft | 169 kts | 86° |
| 2026-05-06 13:54 | 49.43659 | -2.56184 | 2443 ft | 171 kts | 86° |
| 2026-05-06 13:55 | 49.43707 | -2.54252 | 3292 ft | 187 kts | 88° |
| 2026-05-06 13:55 | 49.43744 | -2.52140 | 4151 ft | 207 kts | 88° |
| 2026-05-06 13:55 | 49.44085 | -2.49914 | 5097 ft | 222 kts | 56° |
| 2026-05-06 13:55 | 49.45277 | -2.48441 | 6279 ft | 225 kts | 18° |
| 2026-05-06 13:56 | 49.46794 | -2.47829 | 7514 ft | 227 kts | 12° |
| 2026-05-06 13:56 | 49.48355 | -2.47277 | 8711 ft | 234 kts | 11° |
| 2026-05-06 13:56 | 49.49993 | -2.46690 | 9708 ft | 250 kts | 12° |
| 2026-05-06 13:56 | 49.51750 | -2.46039 | 10563 ft | 269 kts | 12° |
| 2026-05-06 13:57 | 49.53630 | -2.45328 | 11424 ft | 286 kts | 12° |
| 2026-05-06 13:57 | 49.55617 | -2.44578 | 12506 ft | 295 kts | 12° |
| 2026-05-06 13:57 | 49.57603 | -2.43816 | 13729 ft | 300 kts | 12° |
| 2026-05-06 13:57 | 49.59643 | -2.43030 | 14855 ft | 305 kts | 12° |
| 2026-05-06 13:58 | 49.61722 | -2.42235 | 15907 ft | 311 kts | 12° |
| 2026-05-06 13:58 | 49.63845 | -2.41421 | 16953 ft | 317 kts | 12° |
| 2026-05-06 13:58 | 49.66013 | -2.40589 | 17961 ft | 324 kts | 12° |
| 2026-05-06 13:58 | 49.68215 | -2.39714 | 18608 ft | 330 kts | 16° |
| 2026-05-06 13:59 | 49.70305 | -2.38173 | 18953 ft | 336 kts | 32° |
| 2026-05-06 13:59 | 49.72140 | -2.35704 | 19039 ft | 361 kts | 46° |
| 2026-05-06 13:59 | 49.73862 | -2.32628 | 19045 ft | 395 kts | 48° |
| 2026-05-06 13:59 | 49.75671 | -2.29275 | 19026 ft | 411 kts | 49° |
| 2026-05-06 14:00 | 49.77521 | -2.25838 | 19022 ft | 414 kts | 49° |
| 2026-05-06 14:00 | 49.79371 | -2.22421 | 19025 ft | 413 kts | 49° |
| 2026-05-06 14:00 | 49.81223 | -2.19016 | 19023 ft | 413 kts | 49° |
| 2026-05-06 14:00 | 49.83086 | -2.15597 | 19037 ft | 413 kts | 49° |
| 2026-05-06 14:01 | 49.84315 | -2.13345 | 19021 ft | 413 kts | 49° |
| 2026-05-06 14:01 | 49.86172 | -2.09941 | 19023 ft | 413 kts | 49° |
| 2026-05-06 14:01 | 49.88035 | -2.06526 | 19069 ft | 418 kts | 49° |
| 2026-05-06 14:01 | 49.89939 | -2.03032 | 19583 ft | 423 kts | 49° |
| 2026-05-06 14:02 | 49.91836 | -1.99545 | 19934 ft | 420 kts | 49° |
| 2026-05-06 14:02 | 49.93723 | -1.96071 | 19995 ft | 419 kts | 49° |
| 2026-05-06 14:02 | 49.96208 | -1.91493 | 20006 ft | 418 kts | 49° |
| 2026-05-06 14:02 | 49.97477 | -1.89155 | 20004 ft | 418 kts | 48° |
| 2026-05-06 14:03 | 49.99525 | -1.85928 | 20002 ft | 416 kts | 40° |
| 2026-05-06 14:03 | 50.01832 | -1.83199 | 20004 ft | 415 kts | 32° |
| 2026-05-06 14:03 | 50.04317 | -1.80990 | 20009 ft | 414 kts | 26° |
| 2026-05-06 14:03 | 50.06888 | -1.78962 | 20007 ft | 414 kts | 25° |
| 2026-05-06 14:04 | 50.09457 | -1.76950 | 20004 ft | 414 kts | 26° |
| 2026-05-06 14:04 | 50.11946 | -1.74680 | 20005 ft | 415 kts | 31° |
| 2026-05-06 14:04 | 50.14316 | -1.72104 | 20002 ft | 415 kts | 36° |
| 2026-05-06 14:04 | 50.16575 | -1.69290 | 20002 ft | 416 kts | 38° |
| 2026-05-06 14:05 | 50.18799 | -1.66408 | 20006 ft | 416 kts | 39° |
| 2026-05-06 14:05 | 50.21018 | -1.63511 | 20004 ft | 416 kts | 39° |
| 2026-05-06 14:05 | 50.23243 | -1.60610 | 20001 ft | 416 kts | 39° |
| 2026-05-06 14:05 | 50.25574 | -1.57907 | 19997 ft | 415 kts | 31° |
| 2026-05-06 14:06 | 50.28113 | -1.55732 | 19998 ft | 414 kts | 24° |
| 2026-05-06 14:06 | 50.30795 | -1.54113 | 20000 ft | 413 kts | 17° |
| 2026-05-06 14:06 | 50.33530 | -1.52754 | 19998 ft | 413 kts | 15° |
| 2026-05-06 14:06 | 50.36274 | -1.51445 | 19999 ft | 412 kts | 15° |
| 2026-05-06 14:07 | 50.39061 | -1.50113 | 19998 ft | 412 kts | 15° |
| 2026-05-06 14:07 | 50.41804 | -1.48786 | 19997 ft | 413 kts | 15° |
| 2026-05-06 14:07 | 50.44555 | -1.47442 | 19996 ft | 413 kts | 16° |
| 2026-05-06 14:07 | 50.47308 | -1.46090 | 19996 ft | 413 kts | 16° |
| 2026-05-06 14:08 | 50.50061 | -1.44732 | 19993 ft | 413 kts | 17° |
| 2026-05-06 14:08 | 50.52774 | -1.43203 | 19989 ft | 413 kts | 20° |
| 2026-05-06 14:08 | 50.55415 | -1.41388 | 19989 ft | 414 kts | 24° |
| 2026-05-06 14:08 | 50.57948 | -1.39341 | 19992 ft | 415 kts | 27° |
| 2026-05-06 14:09 | 50.60498 | -1.37160 | 19991 ft | 414 kts | 27° |
| 2026-05-06 14:09 | 50.63002 | -1.34992 | 19983 ft | 414 kts | 27° |
| 2026-05-06 14:09 | 50.65545 | -1.32787 | 19517 ft | 414 kts | 27° |
| 2026-05-06 14:09 | 50.69457 | -1.29409 | 18647 ft | 409 kts | 27° |
| 2026-05-06 14:10 | 50.79185 | -1.20584 | 16488 ft | 391 kts | 32° |
| 2026-05-06 14:10 | 50.90350 | -1.09006 | 14168 ft | 376 kts | 31° |
| 2026-05-06 14:10 | 50.92766 | -1.06505 | 13683 ft | 370 kts | 32° |
| 2026-05-06 14:10 | 50.94899 | -1.04291 | 13357 ft | 362 kts | 31° |
| 2026-05-06 14:11 | 50.96982 | -1.02122 | 13221 ft | 346 kts | 31° |
| 2026-05-06 14:11 | 50.98965 | -1.00036 | 13065 ft | 333 kts | 33° |
| 2026-05-06 14:11 | 51.00776 | -0.97858 | 12830 ft | 321 kts | 32° |
| 2026-05-06 14:11 | 51.02751 | -0.96414 | 12106 ft | 307 kts | 14° |
| 2026-05-06 14:12 | 51.04820 | -0.95588 | 11229 ft | 303 kts | 11° |
| 2026-05-06 14:12 | 51.06860 | -0.94812 | 10622 ft | 293 kts | 12° |
| 2026-05-06 14:12 | 51.08816 | -0.94012 | 10166 ft | 282 kts | 13° |
| 2026-05-06 14:12 | 51.10706 | -0.93182 | 9918 ft | 277 kts | 13° |
| 2026-05-06 14:13 | 51.12556 | -0.92335 | 9445 ft | 274 kts | 14° |
| 2026-05-06 14:13 | 51.14364 | -0.91485 | 8561 ft | 277 kts | 15° |
| 2026-05-06 14:13 | 51.16217 | -0.90596 | 7727 ft | 276 kts | 14° |
| 2026-05-06 14:13 | 51.18034 | -0.89714 | 7342 ft | 270 kts | 14° |
| 2026-05-06 14:14 | 51.19815 | -0.88845 | 7045 ft | 265 kts | 14° |
| 2026-05-06 14:14 | 51.21578 | -0.87983 | 6736 ft | 262 kts | 15° |
| 2026-05-06 14:14 | 51.23317 | -0.87129 | 6413 ft | 259 kts | 14° |
| 2026-05-06 14:14 | 51.25033 | -0.86289 | 6061 ft | 257 kts | 15° |
| 2026-05-06 14:15 | 51.26779 | -0.85434 | 5708 ft | 256 kts | 15° |
| 2026-05-06 14:15 | 51.28479 | -0.84599 | 5400 ft | 253 kts | 15° |
| 2026-05-06 14:15 | 51.30159 | -0.83774 | 5096 ft | 253 kts | 16° |
| 2026-05-06 14:15 | 51.31845 | -0.82944 | 4779 ft | 252 kts | 16° |
| 2026-05-06 14:16 | 51.33515 | -0.82117 | 4515 ft | 249 kts | 16° |
| 2026-05-06 14:16 | 51.35182 | -0.81291 | 4187 ft | 249 kts | 17° |
| 2026-05-06 14:16 | 51.36820 | -0.80478 | 3893 ft | 249 kts | 16° |
| 2026-05-06 14:16 | 51.38469 | -0.79660 | 3641 ft | 247 kts | 16° |
| 2026-05-06 14:17 | 51.40104 | -0.78847 | 3377 ft | 246 kts | 17° |
| 2026-05-06 14:17 | 51.41733 | -0.78039 | 3150 ft | 241 kts | 16° |
| 2026-05-06 14:17 | 51.43299 | -0.77260 | 3091 ft | 227 kts | 16° |
| 2026-05-06 14:17 | 51.44780 | -0.76523 | 3071 ft | 213 kts | 16° |
| 2026-05-06 14:18 | 51.46162 | -0.75837 | 3030 ft | 200 kts | 17° |
| 2026-05-06 14:18 | 51.47331 | -0.74742 | 2974 ft | 191 kts | 50° |
| 2026-05-06 14:18 | 51.47786 | -0.72811 | 2984 ft | 182 kts | 80° |
| 2026-05-06 14:18 | 51.47794 | -0.70856 | 2880 ft | 174 kts | 87° |
| 2026-05-06 14:19 | 51.47740 | -0.68932 | 2645 ft | 169 kts | 87° |
| 2026-05-06 14:19 | 51.47709 | -0.67083 | 2421 ft | 164 kts | 87° |
| 2026-05-06 14:19 | 51.47700 | -0.65266 | 2202 ft | 163 kts | 85° |
| 2026-05-06 14:19 | 51.47703 | -0.63431 | 1989 ft | 159 kts | 85° |
| 2026-05-06 14:20 | 51.47707 | -0.61692 | 1775 ft | 148 kts | 84° |
| 2026-05-06 14:20 | 51.47713 | -0.60083 | 1513 ft | 143 kts | 85° |
| 2026-05-06 14:20 | 51.47720 | -0.58410 | 1506 ft | 158 kts | 86° |
| 2026-05-06 14:20 | 51.47725 | -0.56470 | 2122 ft | 179 kts | 85° |
| 2026-05-06 14:21 | 51.47922 | -0.54507 | 3047 ft | 177 kts | 61° |
| 2026-05-06 14:21 | 51.48674 | -0.53285 | 3628 ft | 172 kts | 25° |
| 2026-05-06 14:21 | 51.49851 | -0.52896 | 3964 ft | 174 kts | 4° |
| 2026-05-06 14:21 | 51.51093 | -0.52813 | 3986 ft | 177 kts | 1° |
| 2026-05-06 14:22 | 51.52284 | -0.53108 | 3983 ft | 176 kts | 335° |
| 2026-05-06 14:22 | 51.53082 | -0.54589 | 4010 ft | 183 kts | 295° |
| 2026-05-06 14:22 | 51.53159 | -0.56666 | 4006 ft | 190 kts | 268° |
| 2026-05-06 14:22 | 51.52995 | -0.58778 | 4007 ft | 190 kts | 265° |
| 2026-05-06 14:23 | 51.52789 | -0.60922 | 4000 ft | 191 kts | 265° |
| 2026-05-06 14:23 | 51.52577 | -0.63032 | 3999 ft | 191 kts | 264° |
| 2026-05-06 14:23 | 51.52381 | -0.65119 | 3996 ft | 190 kts | 265° |
| 2026-05-06 14:23 | 51.52212 | -0.67207 | 3954 ft | 185 kts | 266° |
| 2026-05-06 14:24 | 51.52045 | -0.69258 | 3573 ft | 187 kts | 266° |
| 2026-05-06 14:24 | 51.51874 | -0.71337 | 3212 ft | 187 kts | 266° |
| 2026-05-06 14:24 | 51.51690 | -0.73398 | 2997 ft | 186 kts | 266° |
| 2026-05-06 14:24 | 51.51496 | -0.75481 | 3011 ft | 187 kts | 266° |
| 2026-05-06 14:25 | 51.51312 | -0.77563 | 3000 ft | 188 kts | 264° |
| 2026-05-06 14:25 | 51.50763 | -0.79483 | 2997 ft | 198 kts | 231° |
| 2026-05-06 14:25 | 51.49546 | -0.80503 | 2984 ft | 202 kts | 189° |
| 2026-05-06 14:25 | 51.48191 | -0.80111 | 2997 ft | 198 kts | 149° |
| 2026-05-06 14:26 | 51.47309 | -0.78511 | 2988 ft | 191 kts | 107° |
| 2026-05-06 14:26 | 51.47212 | -0.76463 | 3007 ft | 183 kts | 81° |
| 2026-05-06 14:26 | 51.47394 | -0.74441 | 3011 ft | 182 kts | 79° |
| 2026-05-06 14:26 | 51.47535 | -0.72411 | 2998 ft | 183 kts | 79° |
| 2026-05-06 14:27 | 51.47643 | -0.70357 | 2837 ft | 184 kts | 82° |
| 2026-05-06 14:27 | 51.47696 | -0.68366 | 2568 ft | 172 kts | 83° |
| 2026-05-06 14:27 | 51.47710 | -0.66545 | 2334 ft | 159 kts | 84° |
| 2026-05-06 14:27 | 51.47712 | -0.64845 | 2089 ft | 145 kts | 85° |
| 2026-05-06 14:28 | 51.47711 | -0.63250 | 1915 ft | 137 kts | 84° |
| 2026-05-06 14:28 | 51.47715 | -0.61732 | 1749 ft | 136 kts | 84° |
| 2026-05-06 14:28 | 51.47720 | -0.60192 | 1571 ft | 138 kts | 84° |
| 2026-05-06 14:28 | 51.47724 | -0.58659 | 1402 ft | 136 kts | 86° |
| 2026-05-06 14:29 | 51.47725 | -0.57131 | 1208 ft | 135 kts | 85° |
| 2026-05-06 14:29 | 51.47728 | -0.55635 | 1024 ft | 134 kts | 86° |
| 2026-05-06 14:29 | 51.47730 | -0.54149 | 825 ft | 132 kts | 85° |
| 2026-05-06 14:29 | 51.47730 | -0.52631 | 601 ft | 131 kts | 85° |
| 2026-05-06 14:30 | 51.47730 | -0.51157 | 453 ft | 130 kts | 84° |
| 2026-05-06 14:30 | 51.47745 | -0.49699 | 273 ft | 130 kts | 84° |
| 2026-05-06 14:30 | 51.47749 | -0.48242 | 124 ft | 130 kts | 86° |
| 2026-05-06 14:30 | 51.47760 | -0.46879 | 99 ft | 90 kts | 89° |
| 2026-05-06 14:31 | 51.47757 | -0.45951 | 96 ft | 72 kts | 95° |
| 2026-05-06 14:31 | 51.47739 | -0.45517 | 97 ft | 20 kts | 128° |
| 2026-05-06 14:31 | 51.47659 | -0.45468 | 96 ft | 8 kts | 177° |
| 2026-05-06 14:31 | 51.47604 | -0.45405 | 95 ft | 13 kts | 107° |
| 2026-05-06 14:32 | 51.47599 | -0.45224 | 95 ft | 19 kts | 90° |
| 2026-05-06 14:32 | 51.47600 | -0.45040 | 95 ft | 11 kts | 89° |
| 2026-05-06 14:32 | 51.47601 | -0.44915 | 95 ft | 10 kts | 89° |
| 2026-05-06 14:32 | 51.47601 | -0.44837 | 95 ft | 0 kts | 90° |
| 2026-05-06 14:33 | 51.47601 | -0.44828 | 95 ft | 0 kts | 90° |
| 2026-05-06 14:33 | 51.47601 | -0.44822 | 95 ft | 2 kts | 90° |
| 2026-05-06 14:34 | 51.47601 | -0.44774 | 95 ft | 7 kts | 93° |
| 2026-05-06 14:34 | 51.47572 | -0.44687 | 99 ft | 12 kts | 147° |
| 2026-05-06 14:34 | 51.47487 | -0.44585 | 97 ft | 18 kts | 148° |
| 2026-05-06 14:34 | 51.47344 | -0.44557 | 95 ft | 24 kts | 180° |
| 2026-05-06 14:35 | 51.47164 | -0.44555 | 97 ft | 28 kts | 179° |
| 2026-05-06 14:35 | 51.46982 | -0.44555 | 95 ft | 23 kts | 179° |
| 2026-05-06 14:35 | 51.46817 | -0.44553 | 97 ft | 23 kts | 179° |
| 2026-05-06 14:35 | 51.46685 | -0.44585 | 97 ft | 15 kts | 224° |
| 2026-05-06 14:36 | 51.46652 | -0.44655 | 97 ft | 0 kts | 230° |
| 2026-05-06 14:36 | 51.46600 | -0.44737 | 98 ft | 24 kts | 221° |
| 2026-05-06 14:36 | 51.46454 | -0.44944 | 100 ft | 29 kts | 221° |
| 2026-05-06 14:36 | 51.46323 | -0.45163 | 97 ft | 22 kts | 251° |
| 2026-05-06 14:37 | 51.46316 | -0.45366 | 98 ft | 20 kts | 270° |
| 2026-05-06 14:37 | 51.46320 | -0.45610 | 98 ft | 16 kts | 275° |
| 2026-05-06 14:37 | 51.46323 | -0.45764 | 95 ft | 8 kts | 270° |
| 2026-05-06 14:37 | 51.46323 | -0.45880 | 95 ft | 13 kts | 269° |
| 2026-05-06 14:38 | 51.46322 | -0.45997 | 95 ft | 0 kts | 269° |
| 2026-05-06 14:38 | 51.46322 | -0.46019 | 95 ft | 4 kts | 262° |
| 2026-05-06 14:38 | 51.46293 | -0.46057 | 98 ft | 8 kts | 197° |
| 2026-05-06 14:38 | 51.46257 | -0.46064 | 98 ft | 3 kts | 183° |
| 2026-05-06 14:39 | 51.46244 | -0.46065 | 97 ft | 0 kts | 183° |
| 2026-05-06 14:39 | 51.46240 | -0.46066 | 97 ft | 0 kts | 182° |